createdAt,value
2017-07-01T00:00:09.149Z,58.80
2017-07-01T00:02:36.595Z,57.20
2017-07-01T00:05:04.040Z,56.90
2017-07-01T00:07:31.468Z,56.80
2017-07-01T00:09:58.903Z,56.50
2017-07-01T00:12:26.333Z,56.80
2017-07-01T00:14:53.772Z,57.00
2017-07-01T00:17:21.202Z,56.80
2017-07-01T00:19:49.405Z,57.60
2017-07-01T00:22:16.837Z,57.60
2017-07-01T00:24:44.292Z,57.30
2017-07-01T00:27:11.740Z,58.20
2017-07-01T00:29:39.169Z,57.90
2017-07-01T00:32:06.617Z,58.30
2017-07-01T00:34:34.085Z,57.30
2017-07-01T00:37:01.528Z,57.10
2017-07-01T00:39:28.956Z,57.10
2017-07-01T00:41:56.398Z,57.20
2017-07-01T00:44:23.846Z,56.80
2017-07-01T00:46:51.301Z,56.80
2017-07-01T00:49:18.733Z,57.20
2017-07-01T00:51:46.173Z,57.50
2017-07-01T00:54:13.633Z,57.70
2017-07-01T00:56:41.060Z,57.10
2017-07-01T00:59:08.496Z,57.60
2017-07-01T01:01:35.928Z,57.40
2017-07-01T01:04:03.412Z,57.20
2017-07-01T01:06:30.841Z,57.40
2017-07-01T01:08:58.294Z,58.20
2017-07-01T01:11:25.829Z,57.70
2017-07-01T01:13:53.257Z,57.90
2017-07-01T01:16:20.698Z,57.80
2017-07-01T01:18:48.129Z,57.70
2017-07-01T01:21:15.564Z,57.60
2017-07-01T01:23:42.998Z,57.90
2017-07-01T01:26:10.429Z,57.90
2017-07-01T01:28:37.860Z,57.90
2017-07-01T01:31:05.370Z,57.50
2017-07-01T01:33:32.822Z,57.40
2017-07-01T01:36:00.264Z,57.50
2017-07-01T01:38:27.706Z,58.20
2017-07-01T01:40:55.249Z,57.70
2017-07-01T01:43:22.842Z,57.60
2017-07-01T01:45:50.267Z,57.90
2017-07-01T01:48:17.712Z,58.30
2017-07-01T01:50:45.146Z,58.00
2017-07-01T01:53:13.370Z,58.60
2017-07-01T01:55:40.803Z,58.60
2017-07-01T01:58:08.236Z,58.30
2017-07-01T02:00:35.680Z,58.50
2017-07-01T02:03:03.107Z,57.90
2017-07-01T02:05:30.554Z,58.90
2017-07-01T02:07:57.979Z,57.80
2017-07-01T02:10:25.420Z,58.00
2017-07-01T02:12:52.852Z,58.30
2017-07-01T02:15:21.084Z,58.50
2017-07-01T02:18:08.731Z,58.20
2017-07-01T02:20:38.996Z,58.20
2017-07-01T02:23:06.443Z,58.30
2017-07-01T02:25:33.873Z,57.70
2017-07-01T02:28:01.311Z,58.00
2017-07-01T02:30:28.748Z,57.80
2017-07-01T02:33:03.695Z,57.50
2017-07-01T02:35:31.120Z,57.90
2017-07-01T02:37:58.564Z,58.20
2017-07-01T02:40:26.019Z,57.70
2017-07-01T02:42:53.428Z,57.80
2017-07-01T02:45:28.477Z,57.40
2017-07-01T02:47:58.477Z,57.50
2017-07-01T02:50:42.410Z,57.60
2017-07-01T02:53:11.489Z,57.80
2017-07-01T02:56:09.374Z,57.50
2017-07-01T02:58:36.817Z,57.60
2017-07-01T03:01:04.253Z,57.70
2017-07-01T03:03:32.448Z,58.00
2017-07-01T03:05:59.924Z,58.00
2017-07-01T03:08:27.377Z,57.50
2017-07-01T03:10:54.824Z,57.90
2017-07-01T03:13:22.260Z,57.90
2017-07-01T03:15:49.690Z,57.90
2017-07-01T03:18:17.125Z,57.90
2017-07-01T03:20:44.556Z,57.60
2017-07-01T03:23:12.024Z,57.70
2017-07-01T03:25:39.470Z,57.50
2017-07-01T03:28:07.016Z,57.40
2017-07-01T03:30:34.454Z,57.10
2017-07-01T03:33:01.880Z,57.00
2017-07-01T03:35:29.321Z,57.00
2017-07-01T03:38:06.589Z,56.50
2017-07-01T03:40:53.534Z,56.90
2017-07-01T03:43:26.262Z,56.70
2017-07-01T03:45:54.615Z,56.70
2017-07-01T03:48:22.053Z,56.80
2017-07-01T03:50:49.496Z,57.30
2017-07-01T03:53:23.556Z,56.90
2017-07-01T03:55:51.000Z,56.60
2017-07-01T03:58:19.212Z,57.00
2017-07-01T04:00:46.669Z,56.40
2017-07-01T04:03:14.099Z,56.90
2017-07-01T04:05:41.536Z,56.70
2017-07-01T04:08:08.970Z,56.40
2017-07-01T04:10:36.409Z,56.60
2017-07-01T04:13:03.852Z,56.00
2017-07-01T04:15:31.275Z,56.40
2017-07-01T04:18:02.461Z,55.80
2017-07-01T04:20:32.907Z,56.10
2017-07-01T04:23:01.158Z,55.60
2017-07-01T04:25:29.352Z,55.90
2017-07-01T04:27:57.780Z,55.70
2017-07-01T04:30:26.011Z,55.10
2017-07-01T04:32:53.450Z,55.10
2017-07-01T04:35:20.893Z,55.50
2017-07-01T04:37:48.324Z,55.30
2017-07-01T04:40:31.452Z,54.90
2017-07-01T04:43:14.464Z,55.00
2017-07-01T04:45:53.684Z,55.40
2017-07-01T04:48:21.881Z,55.60
2017-07-01T04:51:01.326Z,55.20
2017-07-01T04:53:56.507Z,54.90
2017-07-01T04:56:45.644Z,55.30
2017-07-01T04:59:13.076Z,55.10
2017-07-01T05:01:56.363Z,55.30
2017-07-01T05:04:25.484Z,54.80
2017-07-01T05:06:52.920Z,55.00
2017-07-01T05:09:37.741Z,54.20
2017-07-01T05:12:05.167Z,54.30
2017-07-01T05:14:48.421Z,54.70
2017-07-01T05:17:25.747Z,53.10
2017-07-01T05:19:53.199Z,52.90
2017-07-01T05:22:20.632Z,51.20
2017-07-01T05:24:49.001Z,50.40
2017-07-01T05:27:16.837Z,49.00
2017-07-01T05:29:44.262Z,48.00
2017-07-01T05:32:11.697Z,47.40
2017-07-01T05:34:39.139Z,46.60
2017-07-01T05:37:06.622Z,44.80
2017-07-01T05:39:34.169Z,45.80
2017-07-01T05:42:07.460Z,45.80
2017-07-01T05:44:47.696Z,47.40
2017-07-01T05:47:15.900Z,46.90
2017-07-01T05:49:43.384Z,46.90
2017-07-01T05:52:10.817Z,46.90
2017-07-01T05:54:38.257Z,46.10
2017-07-01T05:57:05.701Z,46.50
2017-07-01T05:59:37.995Z,47.30
2017-07-01T06:02:21.982Z,46.80
2017-07-01T06:04:49.420Z,46.80
2017-07-01T06:07:16.860Z,46.30
2017-07-01T06:10:11.050Z,47.10
2017-07-01T06:12:53.057Z,46.40
2017-07-01T06:15:40.861Z,44.50
2017-07-01T06:18:09.070Z,45.10
2017-07-01T06:20:53.889Z,44.20
2017-07-01T06:23:41.488Z,44.60
2017-07-01T06:26:11.019Z,44.30
2017-07-01T06:28:59.194Z,43.80
2017-07-01T06:31:28.228Z,43.70
2017-07-01T06:33:55.664Z,43.50
2017-07-01T06:36:23.116Z,43.30
2017-07-01T06:38:54.049Z,42.50
2017-07-01T06:41:35.248Z,41.10
2017-07-01T06:44:10.480Z,40.80
2017-07-01T06:46:53.687Z,36.70
2017-07-01T06:49:21.119Z,37.10
2017-07-01T06:51:48.587Z,36.20
2017-07-01T06:54:16.828Z,38.00
2017-07-01T06:56:44.367Z,37.30
2017-07-01T06:59:11.812Z,37.90
2017-07-01T07:01:39.304Z,38.40
2017-07-01T07:04:06.752Z,38.70
2017-07-01T07:06:34.185Z,39.10
2017-07-01T07:09:03.991Z,39.30
2017-07-01T07:11:31.417Z,40.60
2017-07-01T07:13:58.922Z,40.50
2017-07-01T07:16:26.369Z,40.80
2017-07-01T07:18:53.809Z,41.40
2017-07-01T07:21:21.248Z,42.10
2017-07-01T07:23:48.696Z,41.80
2017-07-01T07:26:16.128Z,41.90
2017-07-01T07:28:43.572Z,40.90
2017-07-01T07:31:11.015Z,40.90
2017-07-01T07:33:38.461Z,41.00
2017-07-01T07:36:05.888Z,40.00
2017-07-01T07:38:33.326Z,39.60
2017-07-01T07:41:00.785Z,39.00
2017-07-01T07:43:28.245Z,37.70
2017-07-01T07:45:55.780Z,37.00
2017-07-01T07:48:23.221Z,36.20
2017-07-01T07:50:50.662Z,34.10
2017-07-01T07:53:18.112Z,34.30
2017-07-01T07:55:45.543Z,33.00
2017-07-01T07:58:13.004Z,32.60
2017-07-01T08:00:40.428Z,32.00
2017-07-01T08:03:07.888Z,32.00
2017-07-01T08:05:35.419Z,31.70
2017-07-01T08:08:02.867Z,32.60
2017-07-01T08:10:30.304Z,32.60
2017-07-01T08:12:57.736Z,32.00
2017-07-01T08:15:25.185Z,32.40
2017-07-01T08:17:52.616Z,31.70
2017-07-01T08:20:20.057Z,31.00
2017-07-01T08:22:47.493Z,31.20
2017-07-01T08:25:15.608Z,31.20
2017-07-01T08:27:43.047Z,29.80
2017-07-01T08:30:10.554Z,29.80
2017-07-01T08:32:38.010Z,29.20
2017-07-01T08:35:05.464Z,28.60
2017-07-01T08:37:32.882Z,29.10
2017-07-01T08:40:00.327Z,29.20
2017-07-01T08:42:27.808Z,28.90
2017-07-01T08:44:55.213Z,29.70
2017-07-01T08:47:22.653Z,30.00
2017-07-01T08:49:50.900Z,30.20
2017-07-01T08:52:18.339Z,30.10
2017-07-01T08:54:45.876Z,30.80
2017-07-01T08:57:13.321Z,31.30
2017-07-01T08:59:40.756Z,31.00
2017-07-01T09:02:08.620Z,30.10
2017-07-01T09:04:36.167Z,30.70
2017-07-01T09:07:03.745Z,30.90
2017-07-01T09:09:41.084Z,31.30
2017-07-01T09:12:08.516Z,31.60
2017-07-01T09:14:36.118Z,30.60
2017-07-01T09:17:04.326Z,30.20
2017-07-01T09:19:31.755Z,30.10
2017-07-01T09:21:59.196Z,30.30
2017-07-01T09:24:26.664Z,31.10
2017-07-01T09:26:54.133Z,32.20
2017-07-01T09:29:21.569Z,31.50
2017-07-01T09:31:49.039Z,31.20
2017-07-01T09:34:17.235Z,30.20
2017-07-01T09:36:44.664Z,30.20
2017-07-01T09:39:12.119Z,30.20
2017-07-01T09:41:39.612Z,30.40
2017-07-01T09:44:07.148Z,31.30
2017-07-01T09:46:34.576Z,32.20
2017-07-01T09:49:02.125Z,31.30
2017-07-01T09:51:29.628Z,31.10
2017-07-01T09:53:57.089Z,29.80
2017-07-01T09:56:24.537Z,29.60
2017-07-01T09:58:51.968Z,30.00
2017-07-01T10:01:19.399Z,30.00
2017-07-01T10:03:47.098Z,30.30
2017-07-01T10:06:14.599Z,31.80
2017-07-01T10:08:42.045Z,32.40
2017-07-01T10:11:09.479Z,32.00
2017-07-01T10:13:36.931Z,31.90
2017-07-01T10:16:04.372Z,32.40
2017-07-01T10:18:31.813Z,32.30
2017-07-01T10:20:59.243Z,32.40
2017-07-01T10:23:26.677Z,33.10
2017-07-01T10:25:54.118Z,32.60
2017-07-01T10:28:21.602Z,31.80
2017-07-01T10:30:49.141Z,30.00
2017-07-01T10:33:16.683Z,29.40
2017-07-01T10:35:44.096Z,28.00
2017-07-01T10:38:11.536Z,27.80
2017-07-01T10:40:39.049Z,27.30
2017-07-01T10:43:06.481Z,26.80
2017-07-01T10:45:33.924Z,27.60
2017-07-01T10:48:01.377Z,28.60
2017-07-01T10:50:28.843Z,27.80
2017-07-01T10:52:57.059Z,28.20
2017-07-01T10:55:24.486Z,28.10
2017-07-01T10:57:52.071Z,28.80
2017-07-01T11:00:19.608Z,29.20
2017-07-01T11:02:47.043Z,29.50
2017-07-01T11:05:14.468Z,29.80
2017-07-01T11:07:41.938Z,30.10
2017-07-01T11:10:09.364Z,30.90
2017-07-01T11:12:36.795Z,31.40
2017-07-01T11:15:04.293Z,30.90
2017-07-01T11:17:32.593Z,32.40
2017-07-01T11:20:00.451Z,32.40
2017-07-01T11:22:27.908Z,32.30
2017-07-01T11:24:55.365Z,32.50
2017-07-01T11:27:22.832Z,33.00
2017-07-01T11:29:50.286Z,33.10
2017-07-01T11:32:17.735Z,33.10
2017-07-01T11:34:45.201Z,33.20
2017-07-01T11:37:12.732Z,33.30
2017-07-01T11:39:40.240Z,32.30
2017-07-01T11:42:08.465Z,33.50
2017-07-01T11:44:36.016Z,33.10
2017-07-01T11:47:03.468Z,32.60
2017-07-01T11:49:30.901Z,34.00
2017-07-01T11:51:58.358Z,33.00
2017-07-01T11:54:25.906Z,31.20
2017-07-01T11:56:53.580Z,31.80
2017-07-01T11:59:21.785Z,31.10
2017-07-01T12:01:49.272Z,31.00
2017-07-01T12:04:17.493Z,31.60
2017-07-01T12:06:44.920Z,31.50
2017-07-01T12:09:12.429Z,31.90
2017-07-01T12:11:40.637Z,31.80
2017-07-01T12:14:08.136Z,31.80
2017-07-01T12:16:36.348Z,31.50
2017-07-01T12:19:03.793Z,31.40
2017-07-01T12:21:31.224Z,31.50
2017-07-01T12:23:58.726Z,30.90
2017-07-01T12:26:26.192Z,30.30
2017-07-01T12:28:53.715Z,30.60
2017-07-01T12:31:21.148Z,30.20
2017-07-01T12:33:49.357Z,31.20
2017-07-01T12:36:16.788Z,31.10
2017-07-01T12:38:44.226Z,30.00
2017-07-01T12:41:11.660Z,30.60
2017-07-01T12:43:39.091Z,30.30
2017-07-01T12:46:06.523Z,30.00
2017-07-01T12:48:35.397Z,29.80
2017-07-01T12:51:03.596Z,29.80
2017-07-01T12:53:31.069Z,29.70
2017-07-01T12:55:58.504Z,29.70
2017-07-01T12:58:25.974Z,29.80
2017-07-01T13:00:53.424Z,30.00
2017-07-01T13:03:21.668Z,29.70
2017-07-01T13:05:49.948Z,29.60
2017-07-01T13:08:18.144Z,30.60
2017-07-01T13:10:45.575Z,30.00
2017-07-01T13:13:13.039Z,30.30
2017-07-01T13:15:40.500Z,30.10
2017-07-01T13:18:08.019Z,29.90
2017-07-01T13:20:35.504Z,30.30
2017-07-01T13:23:02.957Z,30.10
2017-07-01T13:25:30.392Z,30.00
2017-07-01T13:27:57.909Z,29.70
2017-07-01T13:30:25.371Z,29.80
2017-07-01T13:32:52.804Z,29.80
2017-07-01T13:35:20.311Z,30.40
2017-07-01T13:37:47.763Z,29.70
2017-07-01T13:40:15.196Z,29.50
2017-07-01T13:42:42.684Z,29.90
2017-07-01T13:45:10.125Z,29.60
2017-07-01T13:47:37.575Z,30.00
2017-07-01T13:50:05.005Z,29.70
2017-07-01T13:52:32.446Z,29.90
2017-07-01T13:54:59.898Z,30.00
2017-07-01T13:57:27.323Z,29.90
2017-07-01T13:59:54.755Z,30.50
2017-07-01T14:02:22.191Z,29.90
2017-07-01T14:04:49.620Z,30.40
2017-07-01T14:07:17.061Z,30.50
2017-07-01T14:09:44.545Z,30.00
2017-07-01T14:12:11.998Z,30.20
2017-07-01T14:14:39.419Z,30.60
2017-07-01T14:17:06.951Z,30.60
2017-07-01T14:19:34.402Z,30.00
2017-07-01T14:22:01.828Z,30.70
2017-07-01T14:24:29.268Z,29.80
2017-07-01T14:26:56.704Z,29.70
2017-07-01T14:29:24.132Z,29.40
2017-07-01T14:31:51.606Z,29.20
2017-07-01T14:34:19.045Z,29.70
2017-07-01T14:36:46.482Z,28.80
2017-07-01T14:39:13.912Z,28.80
2017-07-01T14:41:41.341Z,29.30
2017-07-01T14:44:09.559Z,29.50
2017-07-01T14:46:37.037Z,29.50
2017-07-01T14:49:05.370Z,30.00
2017-07-01T14:51:32.805Z,30.00
2017-07-01T14:54:00.247Z,30.00
2017-07-01T14:56:27.691Z,29.80
2017-07-01T14:58:55.144Z,30.00
2017-07-01T15:01:22.595Z,30.00
2017-07-01T15:03:50.033Z,30.40
2017-07-01T15:06:17.460Z,29.60
2017-07-01T15:08:44.910Z,29.60
2017-07-01T15:11:12.340Z,29.40
2017-07-01T15:13:39.790Z,29.60
2017-07-01T15:16:07.247Z,29.80
2017-07-01T15:18:34.684Z,30.00
2017-07-01T15:21:02.113Z,30.80
2017-07-01T15:23:29.580Z,31.30
2017-07-01T15:25:57.024Z,31.20
2017-07-01T15:28:24.458Z,31.00
2017-07-01T15:30:51.903Z,30.60
2017-07-01T15:33:19.341Z,30.00
2017-07-01T15:35:46.772Z,30.80
2017-07-01T15:38:14.213Z,31.10
2017-07-01T15:40:41.654Z,30.80
2017-07-01T15:43:09.079Z,30.70
2017-07-01T15:45:36.524Z,31.10
2017-07-01T15:48:03.948Z,31.20
2017-07-01T15:50:31.418Z,31.30
2017-07-01T15:52:58.845Z,31.30
2017-07-01T15:55:26.408Z,31.30
2017-07-01T15:57:53.824Z,31.40
2017-07-01T16:00:33.016Z,31.80
2017-07-01T16:03:00.988Z,31.70
2017-07-01T16:05:28.423Z,32.00
2017-07-01T16:07:56.634Z,32.50
2017-07-01T16:10:24.063Z,33.20
2017-07-01T16:12:51.509Z,32.60
2017-07-01T16:15:18.969Z,32.40
2017-07-01T16:17:46.425Z,32.30
2017-07-01T16:20:13.980Z,32.30
2017-07-01T16:22:41.533Z,32.50
2017-07-01T16:25:09.750Z,32.60
2017-07-01T16:27:37.182Z,32.60
2017-07-01T16:30:04.624Z,32.80
2017-07-01T16:32:32.073Z,32.60
2017-07-01T16:34:59.620Z,32.30
2017-07-01T16:37:27.052Z,32.20
2017-07-01T16:39:54.497Z,32.50
2017-07-01T16:42:21.948Z,33.00
2017-07-01T16:44:49.449Z,32.70
2017-07-01T16:47:17.177Z,32.40
2017-07-01T16:49:44.591Z,33.00
2017-07-01T16:52:12.040Z,32.90
2017-07-01T16:54:39.497Z,32.70
2017-07-01T16:57:06.943Z,33.30
2017-07-01T16:59:34.376Z,33.10
2017-07-01T17:02:01.820Z,33.40
2017-07-01T17:04:29.287Z,33.20
2017-07-01T17:06:57.508Z,34.10
2017-07-01T17:09:24.961Z,33.60
2017-07-01T17:11:52.404Z,34.00
2017-07-01T17:14:19.836Z,33.50
2017-07-01T17:16:47.289Z,33.70
2017-07-01T17:19:14.724Z,34.10
2017-07-01T17:21:42.182Z,34.20
2017-07-01T17:24:09.620Z,34.80
2017-07-01T17:26:37.072Z,35.60
2017-07-01T17:29:04.514Z,34.80
2017-07-01T17:31:31.950Z,34.90
2017-07-01T17:33:59.408Z,35.50
2017-07-01T17:36:27.612Z,35.20
2017-07-01T17:38:55.061Z,35.70
2017-07-01T17:41:22.501Z,35.30
2017-07-01T17:43:49.968Z,35.40
2017-07-01T17:46:17.409Z,35.70
2017-07-01T17:48:44.877Z,35.40
2017-07-01T17:51:12.354Z,35.90
2017-07-01T17:53:39.804Z,35.90
2017-07-01T17:56:07.240Z,36.40
2017-07-01T17:58:34.668Z,36.30
2017-07-01T18:01:02.121Z,36.30
2017-07-01T18:03:30.314Z,37.00
2017-07-01T18:05:57.744Z,37.00
2017-07-01T18:08:25.193Z,37.40
2017-07-01T18:10:52.620Z,37.10
2017-07-01T18:13:20.050Z,37.80
2017-07-01T18:15:47.485Z,37.60
2017-07-01T18:18:15.694Z,37.30
2017-07-01T18:20:43.444Z,37.30
2017-07-01T18:23:10.880Z,37.50
2017-07-01T18:25:38.337Z,37.60
2017-07-01T18:28:05.771Z,37.50
2017-07-01T18:30:33.222Z,37.60
2017-07-01T18:33:00.661Z,37.20
2017-07-01T18:35:28.103Z,37.10
2017-07-01T18:37:55.535Z,37.10
2017-07-01T18:40:22.988Z,36.90
2017-07-01T18:42:50.480Z,38.50
2017-07-01T18:45:17.909Z,37.30
2017-07-01T18:47:45.352Z,37.50
2017-07-01T18:50:13.548Z,37.60
2017-07-01T18:52:41.021Z,37.60
2017-07-01T18:55:08.476Z,37.70
2017-07-01T18:57:35.910Z,38.30
2017-07-01T19:00:03.353Z,38.10
2017-07-01T19:02:30.780Z,38.10
2017-07-01T19:07:32.196Z,38.80
2017-07-01T19:10:00.373Z,38.70
2017-07-01T19:12:27.806Z,39.40
2017-07-01T19:14:55.249Z,39.10
2017-07-01T19:17:22.682Z,39.80
2017-07-01T19:19:50.109Z,39.80
2017-07-01T19:22:17.552Z,40.30
2017-07-01T19:24:44.989Z,40.60
2017-07-01T19:27:12.420Z,40.50
2017-07-01T19:29:40.629Z,40.80
2017-07-01T19:32:08.077Z,40.80
2017-07-01T19:34:35.512Z,41.00
2017-07-01T19:37:02.942Z,41.40
2017-07-01T19:39:30.375Z,41.30
2017-07-01T19:41:57.822Z,41.50
2017-07-01T19:44:25.253Z,41.80
2017-07-01T19:46:52.684Z,42.00
2017-07-01T19:49:20.132Z,42.20
2017-07-01T19:51:47.559Z,42.40
2017-07-01T19:54:15.758Z,42.60
2017-07-01T19:56:43.188Z,42.60
2017-07-01T19:59:10.632Z,42.50
2017-07-01T20:01:38.057Z,42.30
2017-07-01T20:04:05.489Z,42.30
2017-07-01T20:06:33.714Z,41.90
2017-07-01T20:09:01.151Z,41.90
2017-07-01T20:11:28.609Z,42.10
2017-07-01T20:13:56.050Z,42.10
2017-07-01T20:16:23.490Z,42.50
2017-07-01T20:18:50.924Z,42.20
2017-07-01T20:21:18.357Z,42.50
2017-07-01T20:23:45.800Z,42.60
2017-07-01T20:26:13.240Z,42.70
2017-07-01T20:28:40.673Z,42.30
2017-07-01T20:31:08.134Z,42.40
2017-07-01T20:33:35.565Z,42.10
2017-07-01T20:36:03.044Z,42.30
2017-07-01T20:38:30.489Z,42.30
2017-07-01T20:40:57.928Z,42.50
2017-07-01T20:43:25.357Z,42.80
2017-07-01T20:45:52.838Z,42.50
2017-07-01T20:48:21.033Z,43.70
2017-07-01T20:50:48.477Z,42.90
2017-07-01T20:53:15.911Z,42.70
2017-07-01T20:55:43.346Z,42.90
2017-07-01T20:58:10.801Z,43.10
2017-07-01T21:00:38.233Z,43.90
2017-07-01T21:03:05.667Z,43.60
2017-07-01T21:05:33.120Z,44.10
2017-07-01T21:08:00.553Z,43.80
2017-07-01T21:10:29.704Z,44.10
2017-07-01T21:12:58.041Z,44.10
2017-07-01T21:15:25.597Z,43.90
2017-07-01T21:17:53.049Z,44.00
2017-07-01T21:20:20.502Z,44.00
2017-07-01T21:22:47.965Z,43.80
2017-07-01T21:25:15.417Z,44.10
2017-07-01T21:27:43.033Z,44.10
2017-07-01T21:30:11.253Z,44.10
2017-07-01T21:32:38.678Z,44.10
2017-07-01T21:35:06.326Z,44.20
2017-07-01T21:37:33.798Z,44.40
2017-07-01T21:40:01.229Z,44.70
2017-07-01T21:42:28.659Z,44.90
2017-07-01T21:44:56.107Z,44.80
2017-07-01T21:47:23.577Z,45.20
2017-07-01T21:49:51.188Z,45.40
2017-07-01T21:52:18.613Z,45.60
2017-07-01T21:54:46.056Z,45.70
2017-07-01T21:57:13.505Z,45.90
2017-07-01T21:59:40.976Z,45.60
2017-07-01T22:02:08.439Z,45.70
2017-07-01T22:04:35.877Z,45.60
2017-07-01T22:07:03.569Z,45.60
2017-07-01T22:09:31.020Z,45.60
2017-07-01T22:11:58.477Z,45.90
2017-07-01T22:14:25.896Z,46.00
2017-07-01T22:16:53.333Z,46.20
2017-07-01T22:19:21.538Z,46.20
2017-07-01T22:21:48.985Z,46.20
2017-07-01T22:24:16.421Z,46.10
2017-07-01T22:26:43.849Z,46.70
2017-07-01T22:29:11.289Z,46.50
2017-07-01T22:31:38.734Z,46.80
2017-07-01T22:34:06.164Z,46.90
2017-07-01T22:36:33.656Z,46.70
2017-07-01T22:39:01.089Z,46.80
2017-07-01T22:41:28.530Z,46.70
2017-07-01T22:43:55.977Z,46.70
2017-07-01T22:46:23.512Z,46.70
2017-07-01T22:48:50.928Z,46.70
2017-07-01T22:51:18.375Z,46.70
2017-07-01T22:53:45.807Z,47.50
2017-07-01T22:56:13.248Z,47.40
2017-07-01T22:58:40.729Z,47.50
2017-07-01T23:01:08.156Z,47.90
2017-07-01T23:03:35.593Z,48.00
2017-07-01T23:06:03.020Z,48.20
2017-07-01T23:08:30.492Z,48.80
2017-07-01T23:10:57.956Z,48.60
2017-07-01T23:13:25.392Z,48.90
2017-07-01T23:15:52.835Z,49.20
2017-07-01T23:18:20.269Z,49.00
2017-07-01T23:20:47.708Z,49.30
2017-07-01T23:23:15.139Z,49.10
2017-07-01T23:25:42.587Z,49.20
2017-07-01T23:28:10.019Z,49.20
2017-07-01T23:30:37.453Z,49.30
2017-07-01T23:33:04.888Z,49.50
2017-07-01T23:35:32.324Z,49.50
2017-07-01T23:37:59.763Z,49.30
2017-07-01T23:40:27.203Z,49.40
2017-07-01T23:42:54.633Z,49.30
2017-07-01T23:45:22.832Z,49.30
2017-07-01T23:47:50.268Z,49.30
2017-07-01T23:50:17.725Z,49.40
2017-07-01T23:52:45.168Z,49.40
2017-07-01T23:55:12.599Z,49.30
2017-07-01T23:57:40.036Z,49.60
